createdAt,value
2022-10-05T00:01:00.161Z,8.30
2022-10-05T00:06:11.481Z,8.31
2022-10-05T00:11:17.318Z,8.32
2022-10-05T00:16:21.835Z,8.34
2022-10-05T00:21:27.717Z,8.34
2022-10-05T00:26:33.792Z,8.33
2022-10-05T00:31:37.265Z,8.33
2022-10-05T00:36:40.621Z,8.33
2022-10-05T00:42:02.260Z,8.34
2022-10-05T00:47:35.161Z,8.35
2022-10-05T00:52:56.802Z,8.38
2022-10-05T00:58:28.171Z,8.40
2022-10-05T01:03:53.842Z,8.43
2022-10-05T01:09:24.767Z,8.47
2022-10-05T01:14:52.637Z,8.50
2022-10-05T01:20:10.924Z,8.52
2022-10-05T01:25:39.700Z,8.54
2022-10-05T01:31:01.309Z,8.56
2022-10-05T01:36:29.520Z,8.60
2022-10-05T01:42:09.679Z,8.63
2022-10-05T01:47:22.188Z,8.65
2022-10-05T01:52:51.283Z,8.67
2022-10-05T01:58:07.235Z,8.67
2022-10-05T02:03:35.919Z,8.69
2022-10-05T02:08:47.120Z,8.68
2022-10-05T02:14:07.579Z,8.68
2022-10-05T02:19:36.600Z,8.68
2022-10-05T02:24:46.056Z,8.67
2022-10-05T02:29:53.563Z,8.66
2022-10-05T02:35:02.941Z,8.66
2022-10-05T02:40:38.845Z,8.67
2022-10-05T02:46:03.690Z,8.68
2022-10-05T02:51:23.500Z,8.71
2022-10-05T02:56:56.561Z,8.72
2022-10-05T03:02:13.285Z,8.74
2022-10-05T03:07:23.746Z,8.75
2022-10-05T03:12:51.099Z,8.74
2022-10-05T03:18:06.536Z,8.72
2022-10-05T03:23:33.442Z,8.71
2022-10-05T03:29:00.616Z,8.71
2022-10-05T03:34:09.626Z,8.72
2022-10-05T03:39:12.710Z,8.72
2022-10-05T03:44:38.353Z,8.74
2022-10-05T03:50:13.721Z,8.75
2022-10-05T03:55:35.343Z,8.76
2022-10-05T04:00:40.931Z,8.78
2022-10-05T04:06:01.334Z,8.81
2022-10-05T04:11:17.569Z,8.84
2022-10-05T04:16:29.801Z,8.89
2022-10-05T04:21:38.800Z,8.93
2022-10-05T04:26:57.852Z,8.99
2022-10-05T04:32:16.180Z,9.05
2022-10-05T04:37:27.539Z,9.09
2022-10-05T04:42:39.812Z,9.13
2022-10-05T04:47:55.433Z,9.16
2022-10-05T04:53:04.523Z,9.20
2022-10-05T04:58:07.535Z,9.25
2022-10-05T05:03:16.589Z,9.28
2022-10-05T05:08:58.407Z,9.34
2022-10-05T05:14:17.115Z,9.42
2022-10-05T05:19:35.799Z,9.51
2022-10-05T05:24:55.659Z,9.59
2022-10-05T05:30:12.690Z,9.68
2022-10-05T05:35:25.255Z,9.76
2022-10-05T05:40:34.160Z,9.86
2022-10-05T05:45:42.722Z,9.98
2022-10-05T05:51:08.942Z,10.10
2022-10-05T05:56:21.158Z,10.23
2022-10-05T06:01:33.531Z,10.40
2022-10-05T06:06:42.806Z,10.60
2022-10-05T06:11:55.455Z,10.80
2022-10-05T06:17:05.528Z,11.02
2022-10-05T06:22:29.660Z,11.23
2022-10-05T06:28:03.998Z,11.39
2022-10-05T06:33:50.593Z,11.49
2022-10-05T06:39:16.020Z,11.51
2022-10-05T06:44:49.345Z,11.50
2022-10-05T06:50:14.299Z,11.55
2022-10-05T06:55:51.247Z,11.73
2022-10-05T07:01:11.130Z,12.20
2022-10-05T07:06:44.466Z,13.19
2022-10-05T07:12:12.554Z,14.56
2022-10-05T07:18:07.173Z,15.11
2022-10-05T07:23:20.106Z,15.33
2022-10-05T07:29:11.032Z,15.26
2022-10-05T07:34:22.839Z,15.19
2022-10-05T07:40:00.595Z,15.07
2022-10-05T07:45:23.847Z,15.49
2022-10-05T07:50:39.022Z,16.31
2022-10-05T07:55:50.425Z,16.97
2022-10-05T08:00:53.528Z,17.60
2022-10-05T08:05:59.837Z,17.93
2022-10-05T08:11:29.642Z,18.57
2022-10-05T08:16:38.168Z,18.63
2022-10-05T08:22:11.801Z,18.74
2022-10-05T08:27:33.948Z,18.65
2022-10-05T08:33:03.164Z,18.36
2022-10-05T08:38:18.864Z,19.16
2022-10-05T08:43:55.151Z,20.04
2022-10-05T08:49:42.389Z,19.63
2022-10-05T08:54:54.918Z,19.87
2022-10-05T09:00:04.741Z,19.40
2022-10-05T09:05:45.228Z,17.94
2022-10-05T09:11:09.460Z,17.35
2022-10-05T09:16:31.922Z,17.91
2022-10-05T09:21:57.413Z,17.91
2022-10-05T09:27:03.632Z,17.65
2022-10-05T09:32:21.582Z,18.15
2022-10-05T09:37:44.963Z,18.98
2022-10-05T09:42:58.431Z,19.42
2022-10-05T09:48:22.567Z,19.40
2022-10-05T09:53:47.530Z,18.15
2022-10-05T09:58:55.091Z,17.54
2022-10-05T10:04:21.841Z,18.52
2022-10-05T10:09:40.703Z,20.26
2022-10-05T10:15:15.531Z,20.34
2022-10-05T10:20:49.158Z,19.88
2022-10-05T10:26:28.357Z,19.68
2022-10-05T10:31:47.964Z,19.54
2022-10-05T10:37:32.979Z,19.21
2022-10-05T10:42:57.003Z,19.16
2022-10-05T10:48:19.993Z,20.58
2022-10-05T10:53:49.066Z,20.45
2022-10-05T10:59:11.428Z,19.68
2022-10-05T11:04:40.232Z,19.13
2022-10-05T11:10:02.182Z,19.03
2022-10-05T11:15:22.254Z,19.14
2022-10-05T11:20:58.456Z,20.35
2022-10-05T11:26:27.880Z,20.19
2022-10-05T11:31:34.734Z,19.31
2022-10-05T11:36:57.464Z,18.82
2022-10-05T11:42:22.989Z,18.54
2022-10-05T11:47:38.261Z,18.46
2022-10-05T11:53:02.668Z,19.35
2022-10-05T11:58:12.064Z,20.54
2022-10-05T12:03:29.071Z,20.81
2022-10-05T12:09:11.165Z,20.00
2022-10-05T12:14:37.834Z,19.36
2022-10-05T12:19:49.570Z,18.76
2022-10-05T12:25:30.528Z,18.43
2022-10-05T12:31:15.379Z,18.24
2022-10-05T12:36:35.922Z,19.31
2022-10-05T12:42:29.360Z,20.93
2022-10-05T12:47:38.250Z,20.38
2022-10-05T12:53:15.863Z,19.65
2022-10-05T12:58:46.108Z,18.97
2022-10-05T13:04:11.023Z,18.45
2022-10-05T13:09:44.850Z,18.09
2022-10-05T13:15:01.883Z,18.29
2022-10-05T13:20:37.756Z,19.43
2022-10-05T13:25:53.974Z,20.35
2022-10-05T13:31:28.272Z,20.00
2022-10-05T13:36:44.518Z,19.01
2022-10-05T13:42:00.218Z,18.50
2022-10-05T13:47:27.901Z,18.12
2022-10-05T13:52:45.238Z,18.18
2022-10-05T13:58:06.161Z,19.28
2022-10-05T14:03:31.649Z,19.93
2022-10-05T14:08:46.543Z,19.75
2022-10-05T14:13:50.605Z,18.65
2022-10-05T14:19:05.999Z,17.90
2022-10-05T14:24:45.188Z,17.36
2022-10-05T14:30:01.916Z,17.43
2022-10-05T14:35:13.071Z,17.98
2022-10-05T14:40:29.398Z,18.00
2022-10-05T14:45:34.193Z,19.03
2022-10-05T14:51:12.972Z,19.56
2022-10-05T14:56:22.946Z,19.37
2022-10-05T15:01:31.916Z,18.62
2022-10-05T15:06:55.443Z,17.54
2022-10-05T15:12:02.769Z,17.34
2022-10-05T15:17:18.474Z,18.36
2022-10-05T15:22:50.672Z,18.94
2022-10-05T15:28:49.003Z,18.64
2022-10-05T15:34:19.105Z,18.32
2022-10-05T15:39:40.842Z,18.12
2022-10-05T15:45:07.894Z,18.38
2022-10-05T15:50:24.965Z,19.07
2022-10-05T15:55:43.619Z,19.37
2022-10-05T16:01:06.428Z,18.70
2022-10-05T16:06:43.897Z,17.06
2022-10-05T16:11:59.568Z,16.45
2022-10-05T16:17:29.220Z,17.27
2022-10-05T16:22:43.526Z,17.84
2022-10-05T16:28:20.743Z,18.17
2022-10-05T16:33:53.971Z,18.40
2022-10-05T16:39:22.531Z,18.47
2022-10-05T16:44:53.671Z,18.40
2022-10-05T16:50:28.112Z,18.42
2022-10-05T16:55:43.082Z,18.42
2022-10-05T17:01:07.130Z,18.27
2022-10-05T17:06:23.501Z,18.13
2022-10-05T17:11:43.398Z,17.99
2022-10-05T17:16:56.391Z,17.91
2022-10-05T17:22:25.164Z,17.88
2022-10-05T17:27:51.309Z,17.69
2022-10-05T17:32:58.753Z,17.13
2022-10-05T17:38:22.466Z,16.89
2022-10-05T17:43:34.288Z,16.97
2022-10-05T17:48:37.413Z,16.78
2022-10-05T17:54:02.659Z,16.54
2022-10-05T17:59:10.142Z,16.65
2022-10-05T18:04:26.812Z,16.85
2022-10-05T18:09:34.807Z,17.00
2022-10-05T18:14:58.352Z,17.10
2022-10-05T18:20:20.486Z,16.74
2022-10-05T18:25:35.540Z,16.89
2022-10-05T18:31:05.225Z,17.06
2022-10-05T18:36:37.878Z,17.06
2022-10-05T18:42:03.998Z,17.29
2022-10-05T18:47:28.598Z,16.94
2022-10-05T18:53:13.166Z,16.52
2022-10-05T18:58:42.794Z,16.45
2022-10-05T19:03:56.166Z,16.59
2022-10-05T19:09:17.774Z,16.97
2022-10-05T19:14:53.998Z,17.17
2022-10-05T19:20:14.343Z,17.31
2022-10-05T19:25:47.994Z,17.22
2022-10-05T19:31:11.692Z,17.09
2022-10-05T19:36:15.304Z,16.69
2022-10-05T19:41:22.964Z,16.03
2022-10-05T19:46:56.770Z,15.49
2022-10-05T19:52:00.970Z,15.06
2022-10-05T19:57:17.644Z,14.98
2022-10-05T20:02:26.372Z,15.45
2022-10-05T20:07:30.587Z,15.59
2022-10-05T20:12:57.914Z,15.45
2022-10-05T20:18:54.906Z,15.52
2022-10-05T20:24:19.921Z,15.58
2022-10-05T20:29:23.678Z,15.63
2022-10-05T20:34:27.329Z,15.55
2022-10-05T20:39:31.883Z,15.20
2022-10-05T20:44:37.771Z,15.08
2022-10-05T20:49:42.209Z,14.68
2022-10-05T20:59:54.551Z,14.13
2022-10-05T21:04:57.804Z,14.42
2022-10-05T21:10:07.308Z,15.16
2022-10-05T21:15:13.059Z,15.39
2022-10-05T21:20:16.510Z,15.71
2022-10-05T21:25:19.893Z,15.93
2022-10-05T21:30:22.915Z,15.96
2022-10-05T21:35:26.719Z,15.79
2022-10-05T21:40:29.968Z,15.66
2022-10-05T21:45:32.993Z,15.41
2022-10-05T21:50:38.283Z,15.35
2022-10-05T21:55:45.644Z,15.36
2022-10-05T22:00:49.907Z,15.23
2022-10-05T22:05:53.090Z,15.17
2022-10-05T22:10:56.366Z,14.90
2022-10-05T22:16:00.274Z,14.66
2022-10-05T22:21:06.546Z,14.62
2022-10-05T22:26:13.153Z,14.33
2022-10-05T22:31:18.582Z,14.10
2022-10-05T22:36:22.043Z,13.85
2022-10-05T22:41:25.651Z,13.73
2022-10-05T22:46:28.897Z,13.58
2022-10-05T22:51:31.879Z,13.58
2022-10-05T22:56:35.380Z,13.52
2022-10-05T23:01:38.749Z,13.31
2022-10-05T23:06:42.882Z,13.17
2022-10-05T23:11:52.336Z,13.10
2022-10-05T23:16:55.924Z,13.06
2022-10-05T23:21:59.113Z,13.04
2022-10-05T23:27:02.208Z,12.96
2022-10-05T23:32:05.418Z,12.95
2022-10-05T23:37:08.936Z,13.02
2022-10-05T23:42:14.805Z,12.86
2022-10-05T23:47:17.910Z,12.68
2022-10-05T23:52:21.528Z,12.72
2022-10-05T23:57:25.452Z,13.09
